Rickmers Seoul — V7EI5 — position and weather

sailwx.info

Track history (hours):
 
Tides and Currents Weather Stations Pressure Air Temp Water Temp Dewpoint Dewpoint Depression Visibility Wind Speed Wind Dir Waves Ship Positions

Rickmers Seoul

Last reported at 2014-Dec-21 10:33 UTC. Time now 2014-Dec-21 11:24 UTC.
Position N 49°30' W 003°43'.

Length 192.9 m; beam 27.8 m; draft 11.2 m.

Type: Ship (hazmat cat A). MMSI: 538001809.

Date/timePositionNaut miles runAvg speedWind from/ knotsBaromVisibWave heightAir tempDewpointWater temp
2014-Dec-21 10:33N 49°30' W 003°43'7312.2
2014-Dec-21 04:33N 48°53' W 005°20'1413.5
2014-Dec-21 03:33N 48°45' W 005°36'2613.1
2014-Dec-21 01:34N 48°19' W 005°37'1313.1
2014-Dec-21 00:33N 48°08' W 005°26'1313.1
2014-Dec-20 23:33N 47°58' W 005°14'1313.2
2014-Dec-20 22:33N 47°47' W 005°02'1312.7
2014-Dec-20 21:33N 47°41' W 004°46'1512.9
2014-Dec-20 20:24N 47°34' W 004°26'4112.8
2014-Dec-20 17:11N 47°17' W 003°31'24 1.6
2014-Dec-20 02:19N 47°02' W 003°02'1012.5
2014-Dec-20 01:33N 47°04' W 003°16'1312.6
2014-Dec-20 00:33N 47°07' W 003°34'  
Track history (hours):
 
Tides and Currents Weather Stations Pressure Air Temp Water Temp Dewpoint Dewpoint Depression Visibility Wind Speed Wind Dir Waves Ship Positions

Rickmers Seoul

Last reported at 2014-Dec-21 10:33 UTC. Time now 2014-Dec-21 11:24 UTC.
Position N 49°30' W 003°43'.

Length 192.9 m; beam 27.8 m; draft 11.2 m.

Type: Ship (hazmat cat A). MMSI: 538001809.

Date/timePositionNaut miles runAvg speedWind from/ knotsBaromVisibWave heightAir tempDewpointWater temp
2014-Dec-21 10:33N 49°30' W 003°43'7312.2
2014-Dec-21 04:33N 48°53' W 005°20'1413.5
2014-Dec-21 03:33N 48°45' W 005°36'2613.1
2014-Dec-21 01:34N 48°19' W 005°37'1313.1
2014-Dec-21 00:33N 48°08' W 005°26'1313.1
2014-Dec-20 23:33N 47°58' W 005°14'1313.2
2014-Dec-20 22:33N 47°47' W 005°02'1312.7
2014-Dec-20 21:33N 47°41' W 004°46'1512.9
2014-Dec-20 20:24N 47°34' W 004°26'4112.8
2014-Dec-20 17:11N 47°17' W 003°31'24 1.6
2014-Dec-20 02:19N 47°02' W 003°02'1012.5
2014-Dec-20 01:33N 47°04' W 003°16'1312.6
2014-Dec-20 00:33N 47°07' W 003°34'  

Dump ship's entire track history